sensor_id;sensor_type;location;lat;lon;timestamp;pressure;altitude;pressure_sealevel;temperature;humidity
60725;BME280;59881;36.722;-4.462;2023-08-20T00:00:08;100902.06;;;24.10;73.59
60725;BME280;59881;36.722;-4.462;2023-08-20T00:02:36;100647.56;;;22.52;73.79
60725;BME280;59881;36.722;-4.462;2023-08-20T00:05:02;100907.44;;;24.10;73.40
60725;BME280;59881;36.722;-4.462;2023-08-20T07:18:55;100963.66;;;40.58;24.11
60725;BME280;59881;36.722;-4.462;2023-08-20T07:21:21;100888.59;;;40.56;23.48
60725;BME280;59881;36.722;-4.462;2023-08-20T07:23:46;101028.75;;;41.92;23.43
60725;BME280;59881;36.722;-4.462;2023-08-20T07:26:12;101027.56;;;42.26;22.73
60725;BME280;59881;36.722;-4.462;2023-08-20T07:28:38;100661.59;;;40.12;22.74
60725;BME280;59881;36.722;-4.462;2023-08-20T07:31:32;100937.44;;;41.64;22.10
60725;BME280;59881;36.722;-4.462;2023-08-20T07:34:00;101022.34;;;43.02;21.72
60725;BME280;59881;36.722;-4.462;2023-08-20T07:36:26;101008.91;;;43.32;21.14
60725;BME280;59881;36.722;-4.462;2023-08-20T07:38:53;101037.22;;;43.65;20.61
60725;BME280;59881;36.722;-4.462;2023-08-20T07:41:19;101063.28;;;43.64;20.87
60725;BME280;59881;36.722;-4.462;2023-08-20T07:43:45;100773.59;;;41.95;20.43
60725;BME280;59881;36.722;-4.462;2023-08-20T07:46:12;101083.03;;;44.16;20.38
60725;BME280;59881;36.722;-4.462;2023-08-20T07:48:38;101045.72;;;44.00;20.58
60725;BME280;59881;36.722;-4.462;2023-08-20T07:51:04;101041.22;;;43.59;21.14
60725;BME280;59881;36.722;-4.462;2023-08-20T07:53:30;101046.69;;;44.35;20.46
60725;BME280;59881;36.722;-4.462;2023-08-20T07:55:56;100627.22;;;42.30;19.68
60725;BME280;59881;36.722;-4.462;2023-08-20T07:58:22;101051.41;;;45.62;19.10
60725;BME280;59881;36.722;-4.462;2023-08-20T08:00:48;100983.41;;;44.98;19.68
60725;BME280;59881;36.722;-4.462;2023-08-20T08:03:13;101026.06;;;45.46;19.16
60725;BME280;59881;36.722;-4.462;2023-08-20T08:05:49;101052.31;;;46.31;19.49
60725;BME280;59881;36.722;-4.462;2023-08-20T08:08:18;101049.53;;;46.60;19.23
60725;BME280;59881;36.722;-4.462;2023-08-20T08:10:44;100836.03;;;45.54;18.53
60725;BME280;59881;36.722;-4.462;2023-08-20T08:13:14;100966.63;;;46.57;18.22
60725;BME280;59881;36.722;-4.462;2023-08-20T08:15:40;100944.38;;;46.70;17.87
60725;BME280;59881;36.722;-4.462;2023-08-20T08:18:06;101008.13;;;47.46;17.81
60725;BME280;59881;36.722;-4.462;2023-08-20T08:20:32;101059.25;;;48.30;17.32
60725;BME280;59881;36.722;-4.462;2023-08-20T08:22:58;101061.69;;;48.43;16.95
60725;BME280;59881;36.722;-4.462;2023-08-20T08:25:23;101050.03;;;48.54;16.80
60725;BME280;59881;36.722;-4.462;2023-08-20T08:27:49;101058.88;;;49.08;16.45
60725;BME280;59881;36.722;-4.462;2023-08-20T08:30:14;101021.59;;;49.04;16.44
60725;BME280;59881;36.722;-4.462;2023-08-20T08:32:40;101039.16;;;49.17;16.38
60725;BME280;59881;36.722;-4.462;2023-08-20T08:35:06;101056.03;;;49.49;16.30
60725;BME280;59881;36.722;-4.462;2023-08-20T08:37:32;101011.63;;;49.19;16.00
60725;BME280;59881;36.722;-4.462;2023-08-20T08:39:58;101037.09;;;48.61;16.32
60725;BME280;59881;36.722;-4.462;2023-08-20T08:42:23;101064.94;;;49.10;16.38
60725;BME280;59881;36.722;-4.462;2023-08-20T08:44:50;100868.91;;;48.31;16.05
60725;BME280;59881;36.722;-4.462;2023-08-20T08:47:16;100892.31;;;48.39;15.81
60725;BME280;59881;36.722;-4.462;2023-08-20T08:49:45;100875.97;;;47.76;16.33
60725;BME280;59881;36.722;-4.462;2023-08-20T08:52:11;101039.91;;;48.24;16.73
60725;BME280;59881;36.722;-4.462;2023-08-20T08:54:37;101076.47;;;47.61;17.07
60725;BME280;59881;36.722;-4.462;2023-08-20T08:57:04;101077.69;;;47.52;17.37
60725;BME280;59881;36.722;-4.462;2023-08-20T08:59:30;100941.94;;;46.47;17.38
60725;BME280;59881;36.722;-4.462;2023-08-20T09:01:56;101049.31;;;47.95;17.10
60725;BME280;59881;36.722;-4.462;2023-08-20T09:04:22;101078.56;;;49.12;16.63
60725;BME280;59881;36.722;-4.462;2023-08-20T09:06:52;101092.50;;;48.59;15.80
60725;BME280;59881;36.722;-4.462;2023-08-20T09:09:19;100885.91;;;45.98;16.48
60725;BME280;59881;36.722;-4.462;2023-08-20T09:11:48;100907.50;;;44.11;18.61
60725;BME280;59881;36.722;-4.462;2023-08-20T09:14:29;100820.66;;;42.45;20.02
60725;BME280;59881;36.722;-4.462;2023-08-20T09:16:59;100723.41;;;41.24;20.68
60725;BME280;59881;36.722;-4.462;2023-08-20T09:19:30;100867.75;;;41.34;21.63
60725;BME280;59881;36.722;-4.462;2023-08-20T09:21:58;101118.91;;;42.26;22.76
60725;BME280;59881;36.722;-4.462;2023-08-20T09:24:47;101077.94;;;41.95;23.61
60725;BME280;59881;36.722;-4.462;2023-08-20T09:27:13;100838.59;;;40.20;24.27
60725;BME280;59881;36.722;-4.462;2023-08-20T09:29:49;101134.59;;;41.97;24.48
60725;BME280;59881;36.722;-4.462;2023-08-20T09:32:23;100953.75;;;41.47;23.86
60725;BME280;59881;36.722;-4.462;2023-08-20T09:34:50;101104.63;;;42.51;24.46
60725;BME280;59881;36.722;-4.462;2023-08-20T09:37:18;101136.91;;;42.97;23.87
60725;BME280;59881;36.722;-4.462;2023-08-20T09:39:44;101111.50;;;43.54;23.51
60725;BME280;59881;36.722;-4.462;2023-08-20T09:42:10;101106.78;;;43.18;24.08
60725;BME280;59881;36.722;-4.462;2023-08-20T09:44:38;101108.06;;;41.64;26.33
60725;BME280;59881;36.722;-4.462;2023-08-20T15:56:00;100933.25;;;27.97;77.33
60725;BME280;59881;36.722;-4.462;2023-08-20T15:58:25;100082.28;;;22.92;78.00
60725;BME280;59881;36.722;-4.462;2023-08-20T16:00:51;100493.03;;;25.34;79.42
60725;BME280;59881;36.722;-4.462;2023-08-20T16:03:18;101002.13;;;28.35;80.80
60725;BME280;59881;36.722;-4.462;2023-08-20T16:05:43;100936.16;;;27.96;81.66
60725;BME280;59881;36.722;-4.462;2023-08-20T16:08:09;100999.00;;;28.38;82.01
60725;BME280;59881;36.722;-4.462;2023-08-20T16:10:34;100826.50;;;27.40;81.62
60725;BME280;59881;36.722;-4.462;2023-08-20T16:13:00;101000.03;;;28.43;80.86
60725;BME280;59881;36.722;-4.462;2023-08-20T16:15:26;101021.91;;;28.42;81.22
60725;BME280;59881;36.722;-4.462;2023-08-20T16:17:51;101044.22;;;28.51;80.51
60725;BME280;59881;36.722;-4.462;2023-08-20T16:20:17;100855.63;;;27.58;80.64
60725;BME280;59881;36.722;-4.462;2023-08-20T16:22:42;100734.09;;;26.43;79.65
60725;BME280;59881;36.722;-4.462;2023-08-20T16:25:08;100806.72;;;27.13;80.23
60725;BME280;59881;36.722;-4.462;2023-08-20T16:27:33;100642.13;;;25.76;80.74
60725;BME280;59881;36.722;-4.462;2023-08-20T16:29:59;100703.34;;;26.44;79.59
60725;BME280;59881;36.722;-4.462;2023-08-20T16:32:25;100688.56;;;26.13;78.39
60725;BME280;59881;36.722;-4.462;2023-08-20T16:34:51;100777.38;;;26.70;79.19
60725;BME280;59881;36.722;-4.462;2023-08-20T16:37:16;100985.72;;;28.23;80.23
60725;BME280;59881;36.722;-4.462;2023-08-20T16:39:42;100830.63;;;26.82;79.80
60725;BME280;59881;36.722;-4.462;2023-08-20T16:42:08;100135.06;;;22.79;79.95
60725;BME280;59881;36.722;-4.462;2023-08-20T16:44:33;100994.25;;;28.13;81.73
60725;BME280;59881;36.722;-4.462;2023-08-20T16:46:59;100552.13;;;25.23;82.00
60725;BME280;59881;36.722;-4.462;2023-08-20T16:49:25;101020.94;;;28.03;82.62
60725;BME280;59881;36.722;-4.462;2023-08-20T16:51:51;100488.50;;;24.80;83.35
60725;BME280;59881;36.722;-4.462;2023-08-20T16:54:16;100991.38;;;27.88;83.80
60725;BME280;59881;36.722;-4.462;2023-08-20T16:56:42;100987.19;;;27.79;84.07
60725;BME280;59881;36.722;-4.462;2023-08-20T16:59:07;101002.56;;;27.78;85.06
60725;BME280;59881;36.722;-4.462;2023-08-20T17:01:33;101049.44;;;27.72;86.35
60725;BME280;59881;36.722;-4.462;2023-08-20T17:03:59;100912.53;;;26.90;86.89
60725;BME280;59881;36.722;-4.462;2023-08-20T17:06:24;100701.88;;;25.67;87.22
60725;BME280;59881;36.722;-4.462;2023-08-20T17:08:50;100848.94;;;26.32;87.07
60725;BME280;59881;36.722;-4.462;2023-08-20T17:11:15;101012.97;;;27.41;88.07
60725;BME280;59881;36.722;-4.462;2023-08-20T17:13:41;100822.34;;;26.29;88.15
60725;BME280;59881;36.722;-4.462;2023-08-20T17:16:07;100624.59;;;24.48;87.98
60725;BME280;59881;36.722;-4.462;2023-08-20T17:18:32;100492.16;;;23.81;88.48
60725;BME280;59881;36.722;-4.462;2023-08-20T17:20:58;100986.75;;;27.49;89.25
60725;BME280;59881;36.722;-4.462;2023-08-20T17:23:30;100785.50;;;26.01;88.39
60725;BME280;59881;36.722;-4.462;2023-08-20T17:25:56;100705.44;;;25.80;89.42
60725;BME280;59881;36.722;-4.462;2023-08-20T17:28:22;100878.47;;;26.95;90.01
60725;BME280;59881;36.722;-4.462;2023-08-20T17:30:48;100984.47;;;27.59;89.66
60725;BME280;59881;36.722;-4.462;2023-08-20T17:33:15;100897.81;;;26.99;89.18
60725;BME280;59881;36.722;-4.462;2023-08-20T17:35:44;100533.81;;;24.70;89.08
60725;BME280;59881;36.722;-4.462;2023-08-20T17:38:11;100979.06;;;27.45;89.42
60725;BME280;59881;36.722;-4.462;2023-08-20T17:40:37;100869.69;;;26.80;89.05
60725;BME280;59881;36.722;-4.462;2023-08-20T17:43:03;100981.34;;;27.49;89.38
60725;BME280;59881;36.722;-4.462;2023-08-20T17:45:29;100886.13;;;26.92;90.09
60725;BME280;59881;36.722;-4.462;2023-08-20T17:47:54;100872.84;;;26.83;90.33
60725;BME280;59881;36.722;-4.462;2023-08-20T17:50:20;100605.59;;;25.19;89.90
60725;BME280;59881;36.722;-4.462;2023-08-20T17:52:46;100830.31;;;26.51;90.08
60725;BME280;59881;36.722;-4.462;2023-08-20T17:55:12;101029.41;;;27.47;90.03
60725;BME280;59881;36.722;-4.462;2023-08-20T17:57:37;100809.22;;;26.13;89.92
60725;BME280;59881;36.722;-4.462;2023-08-20T18:00:06;100666.84;;;25.32;89.71
60725;BME280;59881;36.722;-4.462;2023-08-20T18:02:35;100746.38;;;25.84;89.87
60725;BME280;59881;36.722;-4.462;2023-08-20T18:05:01;100994.22;;;27.40;90.01
60725;BME280;59881;36.722;-4.462;2023-08-20T18:07:28;100545.78;;;24.61;89.96
60725;BME280;59881;36.722;-4.462;2023-08-20T18:09:54;101043.94;;;27.32;90.54
60725;BME280;59881;36.722;-4.462;2023-08-20T18:12:20;100594.06;;;24.41;90.17
60725;BME280;59881;36.722;-4.462;2023-08-20T18:14:45;101065.06;;;27.15;90.96
60725;BME280;59881;36.722;-4.462;2023-08-20T18:17:11;100707.44;;;25.24;90.91
60725;BME280;59881;36.722;-4.462;2023-08-20T18:19:36;101027.38;;;27.00;91.69
60725;BME280;59881;36.722;-4.462;2023-08-20T18:22:02;101149.63;;;26.96;92.18
60725;BME280;59881;36.722;-4.462;2023-08-20T18:24:27;100834.34;;;25.78;92.35
60725;BME280;59881;36.722;-4.462;2023-08-20T18:26:53;101053.06;;;26.83;93.15
60725;BME280;59881;36.722;-4.462;2023-08-20T18:29:18;100747.94;;;24.59;93.24
60725;BME280;59881;36.722;-4.462;2023-08-20T18:31:44;100836.75;;;25.38;94.02
60725;BME280;59881;36.722;-4.462;2023-08-20T18:34:14;100928.00;;;25.85;94.58
60725;BME280;59881;36.722;-4.462;2023-08-20T18:36:39;100989.97;;;25.93;94.98
60725;BME280;59881;36.722;-4.462;2023-08-20T18:39:05;100673.47;;;23.87;95.34
60725;BME280;59881;36.722;-4.462;2023-08-20T18:41:34;101068.97;;;26.36;96.70
60725;BME280;59881;36.722;-4.462;2023-08-20T18:43:59;100463.34;;;22.51;96.56
60725;BME280;59881;36.722;-4.462;2023-08-20T18:46:27;100833.06;;;24.75;97.66
60725;BME280;59881;36.722;-4.462;2023-08-20T18:48:53;100724.47;;;23.95;98.69
60725;BME280;59881;36.722;-4.462;2023-08-20T18:51:23;100956.19;;;25.54;99.86
60725;BME280;59881;36.722;-4.462;2023-08-20T18:53:49;100735.78;;;24.05;100.00
60725;BME280;59881;36.722;-4.462;2023-08-20T18:56:15;101002.16;;;25.67;100.00
60725;BME280;59881;36.722;-4.462;2023-08-20T18:58:41;101100.22;;;25.96;100.00
60725;BME280;59881;36.722;-4.462;2023-08-20T19:01:06;101052.22;;;25.91;100.00
60725;BME280;59881;36.722;-4.462;2023-08-20T19:03:32;101052.78;;;25.87;100.00
60725;BME280;59881;36.722;-4.462;2023-08-20T19:05:58;101064.16;;;25.82;100.00
60725;BME280;59881;36.722;-4.462;2023-08-20T19:08:24;101031.72;;;25.54;100.00
60725;BME280;59881;36.722;-4.462;2023-08-20T19:10:50;100693.81;;;23.45;100.00
60725;BME280;59881;36.722;-4.462;2023-08-20T19:13:16;100936.81;;;24.86;100.00
60725;BME280;59881;36.722;-4.462;2023-08-20T19:15:46;101067.50;;;25.63;100.00
60725;BME280;59881;36.722;-4.462;2023-08-20T19:18:12;100923.19;;;24.72;100.00
60725;BME280;59881;36.722;-4.462;2023-08-20T19:20:44;100798.03;;;23.72;100.00
60725;BME280;59881;36.722;-4.462;2023-08-20T19:23:10;101019.81;;;25.27;100.00
60725;BME280;59881;36.722;-4.462;2023-08-20T19:25:35;100909.56;;;24.59;100.00
60725;BME280;59881;36.722;-4.462;2023-08-20T19:28:01;101128.16;;;25.52;100.00
60725;BME280;59881;36.722;-4.462;2023-08-20T19:30:26;101119.19;;;25.45;100.00
60725;BME280;59881;36.722;-4.462;2023-08-20T19:32:55;101071.50;;;25.30;100.00
60725;BME280;59881;36.722;-4.462;2023-08-20T19:35:21;100986.81;;;24.73;100.00
60725;BME280;59881;36.722;-4.462;2023-08-20T19:37:46;101080.16;;;25.26;100.00
60725;BME280;59881;36.722;-4.462;2023-08-20T19:40:12;101079.56;;;25.30;100.00
60725;BME280;59881;36.722;-4.462;2023-08-20T19:42:38;101081.25;;;25.31;100.00
60725;BME280;59881;36.722;-4.462;2023-08-20T19:45:04;101153.03;;;25.17;100.00
60725;BME280;59881;36.722;-4.462;2023-08-20T19:47:30;100994.25;;;24.71;100.00
60725;BME280;59881;36.722;-4.462;2023-08-20T19:49:55;101060.25;;;25.12;100.00
60725;BME280;59881;36.722;-4.462;2023-08-20T19:52:21;101096.41;;;25.32;100.00
60725;BME280;59881;36.722;-4.462;2023-08-20T19:54:46;101090.84;;;25.34;100.00
60725;BME280;59881;36.722;-4.462;2023-08-20T19:57:12;101093.53;;;25.34;100.00
60725;BME280;59881;36.722;-4.462;2023-08-20T19:59:37;101102.09;;;25.37;100.00
60725;BME280;59881;36.722;-4.462;2023-08-20T20:02:03;100846.09;;;23.75;100.00
60725;BME280;59881;36.722;-4.462;2023-08-20T20:04:28;101063.69;;;25.06;100.00
60725;BME280;59881;36.722;-4.462;2023-08-20T20:06:54;101106.75;;;25.29;100.00
60725;BME280;59881;36.722;-4.462;2023-08-20T20:09:21;101107.31;;;25.24;100.00
60725;BME280;59881;36.722;-4.462;2023-08-20T20:11:47;101104.97;;;25.21;100.00
60725;BME280;59881;36.722;-4.462;2023-08-20T20:14:12;101104.16;;;25.21;100.00
60725;BME280;59881;36.722;-4.462;2023-08-20T20:16:38;101099.88;;;25.11;100.00
60725;BME280;59881;36.722;-4.462;2023-08-20T20:19:03;101104.59;;;25.09;100.00
60725;BME280;59881;36.722;-4.462;2023-08-20T20:21:30;101118.16;;;25.16;100.00
60725;BME280;59881;36.722;-4.462;2023-08-20T20:23:56;101120.88;;;25.16;100.00
60725;BME280;59881;36.722;-4.462;2023-08-20T20:26:21;101126.25;;;25.16;100.00
60725;BME280;59881;36.722;-4.462;2023-08-20T20:28:47;101125.22;;;25.17;100.00
60725;BME280;59881;36.722;-4.462;2023-08-20T20:31:12;101128.13;;;25.15;100.00
60725;BME280;59881;36.722;-4.462;2023-08-20T20:33:38;101137.88;;;25.16;100.00
60725;BME280;59881;36.722;-4.462;2023-08-20T20:36:04;101158.78;;;25.14;100.00
60725;BME280;59881;36.722;-4.462;2023-08-20T20:38:30;101116.31;;;25.02;100.00
60725;BME280;59881;36.722;-4.462;2023-08-20T20:40:56;101178.88;;;25.12;100.00
60725;BME280;59881;36.722;-4.462;2023-08-20T20:43:21;101145.50;;;25.13;100.00
60725;BME280;59881;36.722;-4.462;2023-08-20T20:45:49;101142.16;;;25.11;100.00
60725;BME280;59881;36.722;-4.462;2023-08-20T20:48:15;101143.16;;;25.10;100.00
60725;BME280;59881;36.722;-4.462;2023-08-20T20:50:41;101151.44;;;25.08;100.00
60725;BME280;59881;36.722;-4.462;2023-08-20T20:53:11;101132.59;;;24.93;100.00
60725;BME280;59881;36.722;-4.462;2023-08-20T20:55:37;101152.66;;;25.06;100.00
60725;BME280;59881;36.722;-4.462;2023-08-20T20:58:03;101151.00;;;25.05;100.00
60725;BME280;59881;36.722;-4.462;2023-08-20T21:00:31;101148.28;;;25.05;100.00
60725;BME280;59881;36.722;-4.462;2023-08-20T21:02:57;101146.81;;;25.02;100.00
60725;BME280;59881;36.722;-4.462;2023-08-20T21:05:23;101158.03;;;25.06;100.00
60725;BME280;59881;36.722;-4.462;2023-08-20T21:07:48;101160.72;;;25.06;100.00
60725;BME280;59881;36.722;-4.462;2023-08-20T21:10:14;101047.63;;;24.38;100.00
60725;BME280;59881;36.722;-4.462;2023-08-20T21:12:40;101146.81;;;25.02;100.00
60725;BME280;59881;36.722;-4.462;2023-08-20T21:15:06;101151.34;;;25.02;100.00
60725;BME280;59881;36.722;-4.462;2023-08-20T21:17:32;101145.78;;;25.03;100.00
60725;BME280;59881;36.722;-4.462;2023-08-20T21:19:58;101148.47;;;25.03;100.00
60725;BME280;59881;36.722;-4.462;2023-08-20T21:22:23;101138.81;;;24.94;100.00
60725;BME280;59881;36.722;-4.462;2023-08-20T21:24:49;101131.63;;;24.86;100.00
60725;BME280;59881;36.722;-4.462;2023-08-20T21:27:14;101129.31;;;24.83;100.00
60725;BME280;59881;36.722;-4.462;2023-08-20T21:29:40;101084.72;;;24.51;100.00
60725;BME280;59881;36.722;-4.462;2023-08-20T21:32:06;101144.94;;;24.88;100.00
60725;BME280;59881;36.722;-4.462;2023-08-20T21:34:32;101111.47;;;24.67;100.00
60725;BME280;59881;36.722;-4.462;2023-08-20T21:36:58;101081.16;;;24.35;100.00
60725;BME280;59881;36.722;-4.462;2023-08-20T21:39:24;101154.72;;;24.89;100.00
60725;BME280;59881;36.722;-4.462;2023-08-20T21:41:50;100960.78;;;23.68;100.00
60725;BME280;59881;36.722;-4.462;2023-08-20T21:44:15;101149.50;;;24.87;100.00
60725;BME280;59881;36.722;-4.462;2023-08-20T21:46:41;101043.16;;;24.15;100.00
60725;BME280;59881;36.722;-4.462;2023-08-20T21:49:07;101162.97;;;24.87;100.00
60725;BME280;59881;36.722;-4.462;2023-08-20T21:51:33;101001.38;;;23.82;100.00
60725;BME280;59881;36.722;-4.462;2023-08-20T21:53:59;101152.84;;;24.89;100.00
60725;BME280;59881;36.722;-4.462;2023-08-20T21:56:25;100865.34;;;23.11;100.00
60725;BME280;59881;36.722;-4.462;2023-08-20T21:58:50;100834.00;;;22.96;100.00
60725;BME280;59881;36.722;-4.462;2023-08-20T22:01:16;101106.09;;;24.67;100.00
60725;BME280;59881;36.722;-4.462;2023-08-20T22:03:42;100988.69;;;23.90;100.00
60725;BME280;59881;36.722;-4.462;2023-08-20T22:06:08;100720.56;;;22.24;100.00
60725;BME280;59881;36.722;-4.462;2023-08-20T22:08:33;101163.25;;;24.92;100.00
60725;BME280;59881;36.722;-4.462;2023-08-20T22:11:00;101141.50;;;24.79;100.00
60725;BME280;59881;36.722;-4.462;2023-08-20T22:13:26;101148.00;;;24.85;100.00
60725;BME280;59881;36.722;-4.462;2023-08-20T22:15:53;101180.13;;;24.86;100.00
60725;BME280;59881;36.722;-4.462;2023-08-20T22:18:19;100752.72;;;22.33;100.00
60725;BME280;59881;36.722;-4.462;2023-08-20T22:20:44;101156.44;;;24.82;100.00
60725;BME280;59881;36.722;-4.462;2023-08-20T22:23:10;101119.84;;;24.57;100.00
60725;BME280;59881;36.722;-4.462;2023-08-20T22:25:36;101139.91;;;24.70;100.00
60725;BME280;59881;36.722;-4.462;2023-08-20T22:28:01;101119.84;;;24.57;100.00
60725;BME280;59881;36.722;-4.462;2023-08-20T22:30:27;101157.66;;;24.79;100.00
60725;BME280;59881;36.722;-4.462;2023-08-20T22:32:52;101236.81;;;24.78;100.00
60725;BME280;59881;36.722;-4.462;2023-08-20T22:35:18;101196.41;;;24.78;100.00
60725;BME280;59881;36.722;-4.462;2023-08-20T22:38:00;100943.38;;;23.41;99.81
60725;BME280;59881;36.722;-4.462;2023-08-20T22:40:26;101154.31;;;24.77;100.00
60725;BME280;59881;36.722;-4.462;2023-08-20T22:42:51;101135.06;;;24.65;99.19
60725;BME280;59881;36.722;-4.462;2023-08-20T22:45:17;100812.22;;;22.67;98.60
60725;BME280;59881;36.722;-4.462;2023-08-20T22:47:42;101137.22;;;24.70;98.70
60725;BME280;59881;36.722;-4.462;2023-08-20T22:50:08;101156.00;;;24.78;97.86
60725;BME280;59881;36.722;-4.462;2023-08-20T22:52:33;101152.47;;;24.77;97.18
60725;BME280;59881;36.722;-4.462;2023-08-20T22:54:59;100865.25;;;22.97;96.77
60725;BME280;59881;36.722;-4.462;2023-08-20T22:57:24;101162.38;;;24.77;96.15
60725;BME280;59881;36.722;-4.462;2023-08-20T22:59:50;101162.59;;;24.75;95.69
60725;BME280;59881;36.722;-4.462;2023-08-20T23:02:16;101164.44;;;24.75;95.06
60725;BME280;59881;36.722;-4.462;2023-08-20T23:04:41;101162.13;;;24.72;94.34
60725;BME280;59881;36.722;-4.462;2023-08-20T23:07:07;101052.06;;;23.93;94.08
60725;BME280;59881;36.722;-4.462;2023-08-20T23:09:32;101149.28;;;24.59;93.27
60725;BME280;59881;36.722;-4.462;2023-08-20T23:11:57;101167.03;;;24.68;93.33
60725;BME280;59881;36.722;-4.462;2023-08-20T23:14:23;101175.31;;;24.67;92.45
60725;BME280;59881;36.722;-4.462;2023-08-20T23:16:48;101149.16;;;24.52;92.15
60725;BME280;59881;36.722;-4.462;2023-08-20T23:19:14;101164.44;;;24.60;91.66
60725;BME280;59881;36.722;-4.462;2023-08-20T23:21:40;100828.13;;;22.46;91.22
60725;BME280;59881;36.722;-4.462;2023-08-20T23:24:05;101153.59;;;24.45;91.33
60725;BME280;59881;36.722;-4.462;2023-08-20T23:26:31;100948.44;;;23.13;91.20
60725;BME280;59881;36.722;-4.462;2023-08-20T23:28:56;101166.81;;;24.55;91.44
60725;BME280;59881;36.722;-4.462;2023-08-20T23:31:23;101121.31;;;24.22;91.81
60725;BME280;59881;36.722;-4.462;2023-08-20T23:33:49;100966.50;;;23.27;91.52
60725;BME280;59881;36.722;-4.462;2023-08-20T23:36:15;101155.25;;;24.46;91.34
60725;BME280;59881;36.722;-4.462;2023-08-20T23:38:41;101174.34;;;24.60;91.64
60725;BME280;59881;36.722;-4.462;2023-08-20T23:41:06;101074.56;;;24.00;91.39
60725;BME280;59881;36.722;-4.462;2023-08-20T23:43:32;101138.81;;;24.41;91.61
60725;BME280;59881;36.722;-4.462;2023-08-20T23:45:58;100855.53;;;22.64;91.68
60725;BME280;59881;36.722;-4.462;2023-08-20T23:48:23;100908.38;;;22.95;90.88
60725;BME280;59881;36.722;-4.462;2023-08-20T23:50:49;101167.66;;;24.55;91.46
60725;BME280;59881;36.722;-4.462;2023-08-20T23:53:14;101150.22;;;24.43;91.19
60725;BME280;59881;36.722;-4.462;2023-08-20T23:55:42;101028.03;;;23.45;90.92
60725;BME280;59881;36.722;-4.462;2023-08-20T23:58:08;101096.31;;;24.13;90.57
